CCA761 ZBTJ-LSZH
Flight info
| Callsign | CCA761 |
|---|---|
| Flight time | N/A |
| Altitude | 38000 |
| Route | IDKE8W IDKEX B339 HUR W69 DKO W66 NUKTI B215 HAM W99 FKG A368 SARIN N161 AMASO M993 DZG N161 LEYLA N644 TETRO M10 SARPI UM10 GOKPA UL746 ODERO L746 LUGEB DEGET SUNIS ERKIR KPT L856 NEGRA NEGR2A |
| Aircraft | A359/H-SDE2E3GHIJ1J3J4J5LM1ORWXYZ/LB1D1 |
Departure
| Time | 2026-04-14 04:30 |
|---|---|
| Airport | Tianjin Binhai International Airport (ZBTJ) |
Arrival
| Time | N/A |
|---|---|
| Airport | Zürich Airport (LSZH) |
| Time | Latitude | Longitude | Altitude | Speed | Heading |
|---|---|---|---|---|---|
| 2026-04-14 03:08 | 39.12886 | 117.34996 | 25 ft | 0 kts | 54° |
| 2026-04-14 03:32 | 39.12885 | 117.34996 | 25 ft | 0 kts | 54° |
| 2026-04-14 03:40 | 39.12885 | 117.34995 | 25 ft | 0 kts | 54° |
| 2026-04-14 04:17 | 39.12885 | 117.34994 | 25 ft | 0 kts | 54° |
| 2026-04-14 04:19 | 39.12880 | 117.34986 | 31 ft | 3 kts | 54° |
| 2026-04-14 04:20 | 39.12868 | 117.34964 | 31 ft | 3 kts | 54° |
| 2026-04-14 04:20 | 39.12856 | 117.34943 | 29 ft | 3 kts | 54° |
| 2026-04-14 04:20 | 39.12850 | 117.34931 | 31 ft | 2 kts | 54° |
| 2026-04-14 04:20 | 39.12841 | 117.34914 | 31 ft | 3 kts | 65° |
| 2026-04-14 04:21 | 39.12835 | 117.34891 | 31 ft | 3 kts | 94° |
| 2026-04-14 04:21 | 39.12844 | 117.34863 | 31 ft | 3 kts | 142° |
| 2026-04-14 04:21 | 39.12861 | 117.34849 | 31 ft | 3 kts | 159° |
| 2026-04-14 04:21 | 39.12880 | 117.34841 | 31 ft | 3 kts | 166° |
| 2026-04-14 04:22 | 39.12893 | 117.34837 | 29 ft | 3 kts | 167° |
| 2026-04-14 04:22 | 39.12912 | 117.34831 | 29 ft | 2 kts | 159° |
| 2026-04-14 04:22 | 39.12919 | 117.34828 | 29 ft | 0 kts | 154° |
| 2026-04-14 04:24 | 39.12917 | 117.34829 | 25 ft | 2 kts | 154° |
| 2026-04-14 04:24 | 39.12884 | 117.34850 | 28 ft | 8 kts | 154° |
| 2026-04-14 04:25 | 39.12829 | 117.34869 | 28 ft | 9 kts | 189° |
| 2026-04-14 04:25 | 39.12783 | 117.34809 | 27 ft | 11 kts | 239° |
| 2026-04-14 04:25 | 39.12755 | 117.34711 | 30 ft | 13 kts | 270° |
| 2026-04-14 04:25 | 39.12818 | 117.34637 | 31 ft | 14 kts | 335° |
| 2026-04-14 04:26 | 39.12914 | 117.34580 | 30 ft | 16 kts | 335° |
| 2026-04-14 04:26 | 39.13022 | 117.34515 | 31 ft | 18 kts | 335° |
| 2026-04-14 04:26 | 39.13144 | 117.34441 | 31 ft | 20 kts | 334° |
| 2026-04-14 04:26 | 39.13277 | 117.34359 | 28 ft | 22 kts | 334° |
| 2026-04-14 04:27 | 39.13421 | 117.34271 | 28 ft | 24 kts | 334° |
| 2026-04-14 04:27 | 39.13573 | 117.34177 | 30 ft | 25 kts | 334° |
| 2026-04-14 04:27 | 39.13732 | 117.34078 | 30 ft | 26 kts | 334° |
| 2026-04-14 04:27 | 39.13899 | 117.33975 | 31 ft | 27 kts | 334° |
| 2026-04-14 04:28 | 39.14049 | 117.33882 | 29 ft | 20 kts | 334° |
| 2026-04-14 04:28 | 39.14107 | 117.33791 | 29 ft | 10 kts | 261° |
| 2026-04-14 04:28 | 39.14102 | 117.33772 | 29 ft | 0 kts | 250° |
| 2026-04-14 04:28 | 39.14097 | 117.33758 | 30 ft | 6 kts | 247° |
| 2026-04-14 04:29 | 39.14058 | 117.33665 | 30 ft | 16 kts | 224° |
| 2026-04-14 04:29 | 39.13957 | 117.33682 | 31 ft | 15 kts | 155° |
| 2026-04-14 04:29 | 39.13935 | 117.33696 | 30 ft | 0 kts | 154° |
| 2026-04-14 04:29 | 39.13796 | 117.33781 | 25 ft | 60 kts | 154° |
| 2026-04-14 04:30 | 39.13179 | 117.34162 | 27 ft | 135 kts | 154° |
| 2026-04-14 04:30 | 39.12197 | 117.34769 | 145 ft | 172 kts | 154° |
| 2026-04-14 04:30 | 39.11059 | 117.35458 | 555 ft | 190 kts | 153° |
| 2026-04-14 04:30 | 39.09859 | 117.36262 | 1021 ft | 199 kts | 150° |
| 2026-04-14 04:31 | 39.08620 | 117.37124 | 1328 ft | 213 kts | 151° |
| 2026-04-14 04:31 | 39.07291 | 117.38083 | 1649 ft | 226 kts | 152° |
| 2026-04-14 04:31 | 39.04613 | 117.40006 | 1994 ft | 220 kts | 151° |
| 2026-04-14 04:32 | 39.03217 | 117.41070 | 2159 ft | 245 kts | 151° |
| 2026-04-14 04:32 | 39.01702 | 117.42269 | 2445 ft | 264 kts | 150° |
| 2026-04-14 04:32 | 39.00125 | 117.43558 | 3028 ft | 270 kts | 147° |
| 2026-04-14 04:32 | 38.98801 | 117.45266 | 3749 ft | 274 kts | 126° |
| 2026-04-14 04:33 | 38.98063 | 117.47525 | 4263 ft | 284 kts | 107° |
| 2026-04-14 04:33 | 38.97654 | 117.49981 | 5110 ft | 277 kts | 100° |
| 2026-04-14 04:33 | 38.97643 | 117.52439 | 5852 ft | 276 kts | 86° |
| 2026-04-14 04:33 | 38.97888 | 117.54866 | 6530 ft | 273 kts | 83° |
| 2026-04-14 04:34 | 38.98176 | 117.57273 | 7073 ft | 273 kts | 82° |
| 2026-04-14 04:34 | 38.98471 | 117.59694 | 7599 ft | 275 kts | 82° |
| 2026-04-14 04:34 | 38.98766 | 117.62133 | 8081 ft | 278 kts | 82° |
| 2026-04-14 04:34 | 38.99063 | 117.64601 | 8572 ft | 280 kts | 82° |
| 2026-04-14 04:35 | 38.99157 | 117.67099 | 9101 ft | 281 kts | 99° |
| 2026-04-14 04:35 | 38.98448 | 117.69365 | 9562 ft | 278 kts | 131° |
| 2026-04-14 04:35 | 38.96946 | 117.70841 | 10013 ft | 272 kts | 163° |
| 2026-04-14 04:35 | 38.95119 | 117.71379 | 10491 ft | 269 kts | 175° |
| 2026-04-14 04:36 | 38.93253 | 117.71684 | 10947 ft | 272 kts | 177° |
| 2026-04-14 04:36 | 38.91366 | 117.71935 | 11413 ft | 273 kts | 181° |
| 2026-04-14 04:36 | 38.89498 | 117.71651 | 11846 ft | 270 kts | 202° |
| 2026-04-14 04:36 | 38.87903 | 117.70444 | 12256 ft | 267 kts | 226° |
| 2026-04-14 04:37 | 38.86843 | 117.68472 | 12459 ft | 275 kts | 251° |
| 2026-04-14 04:37 | 38.86394 | 117.66079 | 12662 ft | 286 kts | 262° |
| 2026-04-14 04:37 | 38.86113 | 117.63496 | 12804 ft | 300 kts | 263° |
| 2026-04-14 04:37 | 38.85854 | 117.60756 | 12835 ft | 319 kts | 266° |
| 2026-04-14 04:38 | 38.86007 | 117.57855 | 12825 ft | 336 kts | 283° |
| 2026-04-14 04:38 | 38.86730 | 117.54930 | 12822 ft | 353 kts | 289° |
| 2026-04-14 04:38 | 38.87606 | 117.51930 | 12821 ft | 363 kts | 290° |
| 2026-04-14 04:38 | 38.88503 | 117.48881 | 12823 ft | 366 kts | 290° |
| 2026-04-14 04:39 | 38.89393 | 117.45819 | 12816 ft | 366 kts | 290° |
| 2026-04-14 04:39 | 38.90264 | 117.42795 | 12815 ft | 366 kts | 289° |
| 2026-04-14 04:39 | 38.91143 | 117.39722 | 12815 ft | 366 kts | 289° |
| 2026-04-14 04:39 | 38.92063 | 117.36673 | 12801 ft | 367 kts | 294° |
| 2026-04-14 04:40 | 38.93504 | 117.33981 | 12816 ft | 369 kts | 313° |
| 2026-04-14 04:40 | 38.95408 | 117.31769 | 12814 ft | 370 kts | 318° |
| 2026-04-14 04:40 | 38.97390 | 117.29659 | 12816 ft | 370 kts | 319° |
| 2026-04-14 04:41 | 39.01357 | 117.25437 | 12817 ft | 370 kts | 319° |
| 2026-04-14 04:41 | 39.03333 | 117.23315 | 12817 ft | 370 kts | 318° |
| 2026-04-14 04:41 | 39.05281 | 117.21217 | 12816 ft | 370 kts | 318° |
| 2026-04-14 04:41 | 39.07253 | 117.19088 | 12819 ft | 370 kts | 318° |
| 2026-04-14 04:42 | 39.09222 | 117.16960 | 12798 ft | 370 kts | 318° |
| 2026-04-14 04:42 | 39.11244 | 117.14902 | 12794 ft | 371 kts | 324° |
| 2026-04-14 04:42 | 39.13552 | 117.13401 | 12798 ft | 374 kts | 336° |
| 2026-04-14 04:42 | 39.16000 | 117.12269 | 12793 ft | 374 kts | 338° |
| 2026-04-14 04:43 | 39.18466 | 117.11195 | 12806 ft | 374 kts | 339° |
| 2026-04-14 04:43 | 39.20933 | 117.10119 | 12795 ft | 374 kts | 339° |
| 2026-04-14 04:43 | 39.23397 | 117.09038 | 12801 ft | 374 kts | 338° |
| 2026-04-14 04:43 | 39.25831 | 117.07965 | 12798 ft | 374 kts | 338° |
| 2026-04-14 04:44 | 39.28293 | 117.06876 | 12801 ft | 374 kts | 338° |
| 2026-04-14 04:44 | 39.30753 | 117.05784 | 12802 ft | 374 kts | 338° |
| 2026-04-14 04:44 | 39.33214 | 117.04691 | 12811 ft | 374 kts | 338° |
| 2026-04-14 04:44 | 39.35677 | 117.03597 | 12795 ft | 374 kts | 338° |
| 2026-04-14 04:45 | 39.38173 | 117.02648 | 12792 ft | 376 kts | 346° |
| 2026-04-14 04:45 | 39.40795 | 117.02394 | 12836 ft | 381 kts | 357° |
| 2026-04-14 04:45 | 39.43467 | 117.02469 | 13185 ft | 385 kts | 359° |
| 2026-04-14 04:45 | 39.46108 | 117.02586 | 13695 ft | 385 kts | 359° |
| 2026-04-14 04:46 | 39.48793 | 117.02701 | 14091 ft | 387 kts | 359° |
| 2026-04-14 04:46 | 39.51495 | 117.02811 | 14459 ft | 390 kts | 358° |
| 2026-04-14 04:46 | 39.54210 | 117.02918 | 14853 ft | 392 kts | 358° |
| 2026-04-14 04:46 | 39.56952 | 117.03025 | 15183 ft | 395 kts | 358° |
| 2026-04-14 04:47 | 39.59707 | 117.03130 | 15585 ft | 397 kts | 358° |
| 2026-04-14 04:47 | 39.62479 | 117.03236 | 15983 ft | 399 kts | 358° |
| 2026-04-14 04:47 | 39.65253 | 117.03181 | 16367 ft | 398 kts | 352° |
| 2026-04-14 04:47 | 39.68012 | 117.02829 | 16761 ft | 399 kts | 349° |
| 2026-04-14 04:48 | 39.70745 | 117.02416 | 17134 ft | 401 kts | 349° |
| 2026-04-14 04:48 | 39.73526 | 117.01991 | 17519 ft | 404 kts | 349° |
| 2026-04-14 04:48 | 39.76318 | 117.01567 | 17707 ft | 404 kts | 349° |
| 2026-04-14 04:48 | 39.79117 | 117.01144 | 17720 ft | 405 kts | 349° |
| 2026-04-14 04:49 | 39.81917 | 117.00722 | 17718 ft | 406 kts | 349° |
| 2026-04-14 04:49 | 39.84722 | 117.00300 | 17718 ft | 406 kts | 349° |
| 2026-04-14 04:49 | 39.87529 | 116.99878 | 17718 ft | 406 kts | 349° |
| 2026-04-14 04:49 | 39.90331 | 116.99457 | 17718 ft | 406 kts | 349° |
| 2026-04-14 04:50 | 39.93100 | 116.99040 | 17718 ft | 406 kts | 349° |
| 2026-04-14 04:50 | 39.95903 | 116.98618 | 17717 ft | 406 kts | 349° |
| 2026-04-14 04:50 | 39.98708 | 116.98195 | 17718 ft | 406 kts | 349° |
| 2026-04-14 04:50 | 40.01515 | 116.97771 | 17747 ft | 407 kts | 349° |
| 2026-04-14 04:51 | 40.04335 | 116.97345 | 18103 ft | 409 kts | 349° |
| 2026-04-14 04:51 | 40.07160 | 116.96918 | 18496 ft | 409 kts | 349° |
| 2026-04-14 04:51 | 40.09995 | 116.96488 | 18819 ft | 411 kts | 348° |
| 2026-04-14 04:51 | 40.12846 | 116.96056 | 19131 ft | 413 kts | 348° |
| 2026-04-14 04:52 | 40.15710 | 116.95622 | 19445 ft | 415 kts | 348° |
| 2026-04-14 04:52 | 40.18549 | 116.95192 | 19756 ft | 418 kts | 348° |
| 2026-04-14 04:52 | 40.21445 | 116.94752 | 20056 ft | 420 kts | 348° |
| 2026-04-14 04:52 | 40.24353 | 116.94309 | 20365 ft | 422 kts | 348° |
| 2026-04-14 04:53 | 40.27274 | 116.93865 | 20673 ft | 424 kts | 348° |
| 2026-04-14 04:53 | 40.30210 | 116.93418 | 20970 ft | 426 kts | 348° |
| 2026-04-14 04:53 | 40.33161 | 116.92969 | 21254 ft | 428 kts | 348° |
| 2026-04-14 04:53 | 40.36131 | 116.92516 | 21550 ft | 430 kts | 348° |
| 2026-04-14 04:54 | 40.39114 | 116.92062 | 21864 ft | 433 kts | 348° |
| 2026-04-14 04:54 | 40.42073 | 116.91610 | 22152 ft | 435 kts | 348° |
| 2026-04-14 04:54 | 40.45080 | 116.91107 | 22423 ft | 435 kts | 344° |
| 2026-04-14 04:54 | 40.47953 | 116.90012 | 22705 ft | 427 kts | 330° |
| 2026-04-14 04:55 | 40.50453 | 116.88017 | 22994 ft | 418 kts | 317° |
| 2026-04-14 04:55 | 40.52689 | 116.85573 | 23294 ft | 419 kts | 314° |
| 2026-04-14 04:55 | 40.54886 | 116.83041 | 23538 ft | 421 kts | 313° |
| 2026-04-14 04:55 | 40.57088 | 116.80495 | 23825 ft | 423 kts | 313° |
| 2026-04-14 04:56 | 40.59301 | 116.77942 | 24136 ft | 423 kts | 313° |
| 2026-04-14 04:56 | 40.61487 | 116.75425 | 24434 ft | 424 kts | 313° |
| 2026-04-14 04:56 | 40.63713 | 116.72868 | 24742 ft | 425 kts | 313° |
| 2026-04-14 04:56 | 40.65943 | 116.70309 | 25011 ft | 426 kts | 313° |
| 2026-04-14 04:57 | 40.68182 | 116.67735 | 25282 ft | 428 kts | 313° |
| 2026-04-14 04:57 | 40.70427 | 116.65151 | 25562 ft | 429 kts | 313° |
| 2026-04-14 04:57 | 40.72678 | 116.62563 | 25865 ft | 431 kts | 313° |
| 2026-04-14 04:57 | 40.75064 | 116.60126 | 26165 ft | 437 kts | 320° |
| 2026-04-14 04:58 | 40.77742 | 116.58145 | 26464 ft | 447 kts | 329° |
| 2026-04-14 04:58 | 40.80668 | 116.56784 | 26718 ft | 458 kts | 339° |
| 2026-04-14 04:58 | 40.83838 | 116.56036 | 26952 ft | 468 kts | 345° |
| 2026-04-14 04:58 | 40.87101 | 116.55579 | 27184 ft | 475 kts | 348° |
| 2026-04-14 04:59 | 40.90409 | 116.55275 | 27388 ft | 478 kts | 349° |
| 2026-04-14 04:59 | 40.93734 | 116.55029 | 27694 ft | 479 kts | 349° |
| 2026-04-14 04:59 | 40.97069 | 116.54785 | 27985 ft | 481 kts | 349° |
| 2026-04-14 04:59 | 41.00407 | 116.54526 | 28274 ft | 482 kts | 349° |
| 2026-04-14 05:00 | 41.03761 | 116.54239 | 28512 ft | 483 kts | 348° |
| 2026-04-14 05:00 | 41.07121 | 116.53943 | 28707 ft | 487 kts | 348° |
| 2026-04-14 05:00 | 41.10466 | 116.53634 | 28919 ft | 489 kts | 348° |
| 2026-04-14 05:00 | 41.13865 | 116.53312 | 29190 ft | 491 kts | 348° |
| 2026-04-14 05:01 | 41.17273 | 116.52989 | 29478 ft | 492 kts | 348° |
| 2026-04-14 05:01 | 41.20674 | 116.52530 | 29729 ft | 488 kts | 342° |
| 2026-04-14 05:01 | 41.23952 | 116.51527 | 29953 ft | 480 kts | 334° |
| 2026-04-14 05:01 | 41.27026 | 116.49920 | 30167 ft | 471 kts | 326° |
| 2026-04-14 05:02 | 41.29920 | 116.47893 | 30347 ft | 470 kts | 323° |
| 2026-04-14 05:02 | 41.32759 | 116.45740 | 30568 ft | 470 kts | 322° |
| 2026-04-14 05:02 | 41.35538 | 116.43554 | 30733 ft | 470 kts | 321° |
| 2026-04-14 05:02 | 41.38340 | 116.41311 | 30970 ft | 470 kts | 321° |
| 2026-04-14 05:03 | 41.41135 | 116.39059 | 31259 ft | 469 kts | 321° |
| 2026-04-14 05:03 | 41.43920 | 116.36822 | 31601 ft | 467 kts | 321° |
| 2026-04-14 05:03 | 41.46697 | 116.34600 | 31919 ft | 465 kts | 321° |
| 2026-04-14 05:03 | 41.49468 | 116.32388 | 32172 ft | 465 kts | 321° |
| 2026-04-14 05:04 | 41.52249 | 116.30171 | 32290 ft | 466 kts | 321° |
| 2026-04-14 05:04 | 41.55033 | 116.27953 | 32553 ft | 465 kts | 321° |
| 2026-04-14 05:04 | 41.57814 | 116.25740 | 32859 ft | 464 kts | 321° |
| 2026-04-14 05:04 | 41.60544 | 116.23566 | 33155 ft | 462 kts | 321° |
| 2026-04-14 05:05 | 41.63300 | 116.21368 | 33458 ft | 461 kts | 321° |
| 2026-04-14 05:05 | 41.66049 | 116.19173 | 33710 ft | 460 kts | 321° |
| 2026-04-14 05:05 | 41.68798 | 116.16974 | 33937 ft | 460 kts | 321° |
| 2026-04-14 05:05 | 41.71539 | 116.14779 | 34142 ft | 459 kts | 321° |
| 2026-04-14 05:06 | 41.74281 | 116.12580 | 34344 ft | 459 kts | 321° |
| 2026-04-14 05:06 | 41.77018 | 116.10384 | 34517 ft | 459 kts | 321° |
| 2026-04-14 05:06 | 41.79760 | 116.08182 | 34689 ft | 459 kts | 321° |
| 2026-04-14 05:06 | 41.82456 | 116.06014 | 34881 ft | 458 kts | 321° |
| 2026-04-14 05:07 | 41.85192 | 116.03813 | 35067 ft | 458 kts | 321° |
| 2026-04-14 05:07 | 41.87923 | 116.01614 | 35244 ft | 458 kts | 321° |
| 2026-04-14 05:07 | 41.90656 | 115.99412 | 35386 ft | 458 kts | 321° |
| 2026-04-14 05:07 | 41.93385 | 115.97210 | 35549 ft | 458 kts | 321° |
| 2026-04-14 05:08 | 41.96100 | 115.94994 | 35743 ft | 456 kts | 319° |
| 2026-04-14 05:08 | 41.98753 | 115.92674 | 35974 ft | 454 kts | 318° |
| 2026-04-14 05:08 | 42.01357 | 115.90284 | 36102 ft | 453 kts | 317° |
| 2026-04-14 05:08 | 42.03936 | 115.87866 | 36243 ft | 452 kts | 317° |
| 2026-04-14 05:09 | 42.06479 | 115.85468 | 36384 ft | 452 kts | 317° |
| 2026-04-14 05:09 | 42.09060 | 115.83041 | 36523 ft | 452 kts | 317° |
| 2026-04-14 05:09 | 42.11638 | 115.80623 | 36653 ft | 452 kts | 317° |
| 2026-04-14 05:09 | 42.14223 | 115.78209 | 36810 ft | 452 kts | 317° |
| 2026-04-14 05:10 | 42.16810 | 115.75800 | 36914 ft | 452 kts | 318° |
| 2026-04-14 05:10 | 42.21995 | 115.70973 | 37097 ft | 453 kts | 318° |
| 2026-04-14 05:10 | 42.24587 | 115.68560 | 37232 ft | 452 kts | 317° |
| 2026-04-14 05:11 | 42.27176 | 115.66147 | 37351 ft | 452 kts | 317° |
| 2026-04-14 05:11 | 42.29730 | 115.63764 | 37464 ft | 452 kts | 317° |
| 2026-04-14 05:11 | 42.32313 | 115.61351 | 37572 ft | 452 kts | 317° |
| 2026-04-14 05:12 | 42.37479 | 115.56514 | 37771 ft | 452 kts | 317° |
| 2026-04-14 05:12 | 42.42656 | 115.51656 | 37854 ft | 453 kts | 317° |
| 2026-04-14 05:13 | 42.47840 | 115.46785 | 37972 ft | 455 kts | 317° |
| 2026-04-14 05:13 | 42.53020 | 115.41905 | 37966 ft | 458 kts | 317° |
| 2026-04-14 05:14 | 42.58267 | 115.36954 | 37979 ft | 460 kts | 318° |
| 2026-04-14 05:14 | 42.63519 | 115.31990 | 37958 ft | 460 kts | 318° |
| 2026-04-14 05:15 | 42.68767 | 115.27020 | 37955 ft | 460 kts | 318° |
| 2026-04-14 05:15 | 42.73976 | 115.22075 | 37959 ft | 460 kts | 318° |
| 2026-04-14 05:16 | 42.79224 | 115.17080 | 37957 ft | 461 kts | 318° |
| 2026-04-14 05:16 | 42.84471 | 115.12077 | 37958 ft | 461 kts | 318° |
| 2026-04-14 05:17 | 42.89721 | 115.07061 | 37955 ft | 460 kts | 318° |
| 2026-04-14 05:17 | 42.94963 | 115.02041 | 37955 ft | 460 kts | 318° |
| 2026-04-14 05:18 | 43.00171 | 114.97043 | 37956 ft | 461 kts | 318° |
| 2026-04-14 05:18 | 43.05426 | 114.91989 | 37953 ft | 462 kts | 318° |
| 2026-04-14 05:19 | 43.10679 | 114.86929 | 37953 ft | 462 kts | 319° |
| 2026-04-14 05:19 | 43.15977 | 114.81923 | 37951 ft | 463 kts | 319° |
| 2026-04-14 05:20 | 43.21258 | 114.76999 | 37973 ft | 462 kts | 320° |
| 2026-04-14 05:20 | 43.26575 | 114.72033 | 37952 ft | 462 kts | 320° |
| 2026-04-14 05:21 | 43.31877 | 114.67057 | 37945 ft | 462 kts | 320° |
| 2026-04-14 05:21 | 43.37181 | 114.62062 | 37949 ft | 462 kts | 319° |
| 2026-04-14 05:22 | 43.42440 | 114.57099 | 37947 ft | 462 kts | 320° |
| 2026-04-14 05:22 | 43.47730 | 114.52096 | 37949 ft | 461 kts | 320° |
| 2026-04-14 05:23 | 43.53019 | 114.47082 | 37945 ft | 462 kts | 320° |
| 2026-04-14 05:23 | 43.58309 | 114.42058 | 37940 ft | 462 kts | 320° |
| 2026-04-14 05:24 | 43.63562 | 114.37058 | 37944 ft | 461 kts | 320° |
| 2026-04-14 05:24 | 43.68833 | 114.32031 | 37937 ft | 460 kts | 320° |
| 2026-04-14 05:25 | 43.74099 | 114.26996 | 37946 ft | 460 kts | 320° |
| 2026-04-14 05:25 | 43.79362 | 114.21953 | 37934 ft | 460 kts | 320° |
| 2026-04-14 05:26 | 43.84624 | 114.16900 | 37936 ft | 460 kts | 320° |
| 2026-04-14 05:26 | 43.89831 | 114.11890 | 37928 ft | 458 kts | 320° |
| 2026-04-14 05:27 | 43.95066 | 114.06841 | 37928 ft | 458 kts | 320° |
| 2026-04-14 05:27 | 44.00298 | 114.01784 | 37927 ft | 458 kts | 320° |
| 2026-04-14 05:28 | 44.05527 | 113.96719 | 37939 ft | 458 kts | 320° |
| 2026-04-14 05:28 | 44.10710 | 113.91688 | 37923 ft | 457 kts | 320° |
| 2026-04-14 05:29 | 44.15920 | 113.86619 | 37921 ft | 457 kts | 320° |
| 2026-04-14 05:29 | 44.21124 | 113.81545 | 37920 ft | 456 kts | 320° |
| 2026-04-14 05:30 | 44.26328 | 113.76458 | 37918 ft | 457 kts | 320° |
| 2026-04-14 05:30 | 44.31489 | 113.71405 | 37916 ft | 456 kts | 320° |
| 2026-04-14 05:31 | 44.36672 | 113.66318 | 37921 ft | 455 kts | 320° |
| 2026-04-14 05:31 | 44.41853 | 113.61221 | 37912 ft | 455 kts | 320° |